Time;durP1;ratioP1;P1;durP2;ratioP2;P2;SDS_P1;SDS_P2;PMS_P1;PMS_P2;Temp;Humidity;BMP_temperature;BMP_pressure;BME280_temperature;BME280_humidity;BME280_pressure;Samples;Min_cycle;Max_cycle;Signal;HPM_P1;HPM_P2
2024/04/07 00:02:20;;;;;;;2.90;0.90;;;;;;;16.75;47.44;97058.44;5022019;28;20095;-63
2024/04/07 00:04:46;;;;;;;2.92;1.25;;;;;;;16.74;47.41;97057.59;5023148;28;20037;-64
2024/04/07 00:07:11;;;;;;;2.90;1.20;;;;;;;16.76;47.31;97057.31;5023000;28;20172;-63
2024/04/07 00:09:38;;;;;;;2.83;0.85;;;;;;;16.93;46.43;97051.28;5021110;28;20036;-63
2024/04/07 00:12:04;;;;;;;5.65;1.00;;;;;;;17.03;46.28;97056.53;5022196;28;20037;-63
2024/04/07 00:14:30;;;;;;;1.95;1.35;;;;;;;17.09;46.16;97054.56;5023111;28;20076;-63
2024/04/07 00:16:56;;;;;;;2.63;1.10;;;;;;;17.19;46.17;97053.56;5015779;28;20044;-63
2024/04/07 00:19:23;;;;;;;3.83;1.40;;;;;;;17.28;45.93;97034.50;5022337;28;20120;-64
2024/04/07 00:21:49;;;;;;;3.22;1.17;;;;;;;17.27;45.73;97033.72;5020973;28;20255;-63
2024/04/07 00:24:14;;;;;;;3.25;0.93;;;;;;;17.32;45.69;97040.19;5015160;28;20723;-63
2024/04/07 00:26:40;;;;;;;4.40;1.58;;;;;;;17.55;45.59;97041.88;5019638;28;20037;-63
2024/04/07 00:29:06;;;;;;;2.45;0.80;;;;;;;17.51;45.70;97027.19;5021352;28;20120;-63
2024/04/07 00:31:31;;;;;;;1.75;0.80;;;;;;;17.48;45.39;97038.75;5021830;28;20493;-63
2024/04/07 00:33:57;;;;;;;1.90;0.88;;;;;;;17.57;45.60;97038.03;5015321;28;20049;-63
2024/04/07 00:36:22;;;;;;;2.45;0.98;;;;;;;17.50;45.65;97033.78;5023330;28;20037;-63
2024/04/07 00:38:48;;;;;;;2.40;0.93;;;;;;;17.59;45.29;97041.28;5023187;28;20591;-64
2024/04/07 00:41:13;;;;;;;1.85;0.90;;;;;;;17.64;45.46;97024.72;5022661;28;20125;-64
2024/04/07 00:43:40;;;;;;;4.40;1.13;;;;;;;17.63;45.37;97034.91;5014897;28;20061;-64
2024/04/07 00:46:06;;;;;;;3.00;0.95;;;;;;;17.62;45.51;97032.47;5012237;28;20049;-64
2024/04/07 00:48:35;;;;;;;2.72;1.35;;;;;;;17.60;45.50;97037.41;5020429;28;20046;-64
2024/04/07 00:51:01;;;;;;;2.20;0.85;;;;;;;17.56;45.55;97034.50;5022260;28;20053;-64
2024/04/07 00:53:27;;;;;;;1.20;0.70;;;;;;;17.55;45.70;97032.88;5023320;28;20045;-63
2024/04/07 00:55:53;;;;;;;2.35;1.02;;;;;;;17.43;46.42;97036.13;5021261;28;20053;-63
2024/04/07 00:58:19;;;;;;;2.15;0.93;;;;;;;17.26;46.87;97023.06;5013309;28;20124;-64
2024/04/07 01:00:46;;;;;;;2.45;0.90;;;;;;;17.20;47.16;97027.81;5017801;28;20037;-64
2024/04/07 01:03:13;;;;;;;3.97;1.13;;;;;;;17.21;46.84;97031.38;5007277;28;20046;-63
2024/04/07 01:05:41;;;;;;;2.30;1.05;;;;;;;17.11;47.34;97027.72;5004357;28;20571;-64
2024/04/07 01:08:08;;;;;;;1.75;0.90;;;;;;;17.14;46.95;97032.56;5005811;28;20096;-64
2024/04/07 01:10:34;;;;;;;2.90;0.98;;;;;;;17.09;47.38;97031.84;5009829;28;20046;-64
2024/04/07 01:13:00;;;;;;;5.05;1.00;;;;;;;17.09;47.17;97031.84;5002958;28;20321;-64
2024/04/07 01:15:25;;;;;;;3.30;1.50;;;;;;;17.06;47.34;97038.75;5004431;28;20117;-64
2024/04/07 01:17:51;;;;;;;3.95;1.42;;;;;;;17.03;47.37;97047.56;5019276;28;20097;-63
2024/04/07 01:20:17;;;;;;;4.28;1.55;;;;;;;16.94;47.78;97060.28;5022496;28;20125;-64
2024/04/07 01:22:43;;;;;;;3.55;1.80;;;;;;;16.76;48.60;97043.63;5020941;28;20152;-64
2024/04/07 01:25:09;;;;;;;5.28;2.63;;;;;;;16.59;48.89;97050.47;5025189;28;20046;-64
2024/04/07 01:27:35;;;;;;;5.65;2.10;;;;;;;16.47;49.25;97050.16;5025783;28;20052;-64
2024/04/07 01:30:00;;;;;;;4.70;2.00;;;;;;;16.34;49.55;97049.81;5013875;28;20069;-64
2024/04/07 01:32:26;;;;;;;6.22;2.00;;;;;;;16.31;49.29;97049.56;5032098;28;20048;-64
2024/04/07 01:34:52;;;;;;;4.20;1.60;;;;;;;16.18;50.01;97054.69;5018513;28;20073;-64
2024/04/07 01:37:17;;;;;;;4.15;1.17;;;;;;;16.17;49.52;97054.97;5017931;28;20037;-64
2024/04/07 01:39:43;;;;;;;3.15;1.65;;;;;;;16.24;49.48;97047.22;5018612;28;20041;-64
2024/04/07 01:42:08;;;;;;;5.00;1.70;;;;;;;16.30;49.09;97047.97;5025317;28;20043;-64
2024/04/07 01:44:34;;;;;;;3.63;1.48;;;;;;;16.27;48.79;97052.09;5017166;28;20200;-64
2024/04/07 01:47:00;;;;;;;3.05;1.30;;;;;;;16.28;48.74;97044.72;5020546;28;20677;-64
2024/04/07 01:49:25;;;;;;;2.53;1.30;;;;;;;16.13;49.41;97049.31;5019804;28;20052;-64
2024/04/07 01:51:51;;;;;;;2.05;0.85;;;;;;;16.10;49.28;97052.63;5024278;28;20045;-64
2024/04/07 01:54:17;;;;;;;2.83;0.93;;;;;;;15.99;49.82;97046.50;5025812;28;20124;-64
2024/04/07 01:56:43;;;;;;;3.13;1.13;;;;;;;15.92;49.54;97038.66;5022017;28;20037;-64
2024/04/07 01:59:08;;;;;;;3.25;1.42;;;;;;;16.06;48.79;97046.13;5021330;28;20045;-64
2024/04/07 02:01:34;;;;;;;2.63;1.40;;;;;;;16.22;48.49;97033.88;5022979;28;20136;-64
2024/04/07 02:04:00;;;;;;;4.22;1.55;;;;;;;16.34;48.28;97035.31;5025583;28;20601;-64
2024/04/07 02:06:25;;;;;;;4.05;1.52;;;;;;;16.32;48.58;97038.34;5025131;28;20048;-64
2024/04/07 02:08:51;;;;;;;3.08;1.55;;;;;;;16.37;48.40;97034.75;5016668;28;20038;-64
2024/04/07 02:11:17;;;;;;;2.53;1.08;;;;;;;16.34;48.43;97038.06;5025224;28;20052;-64
2024/04/07 02:13:42;;;;;;;2.95;1.42;;;;;;;16.31;48.42;97033.19;5022996;28;20045;-64
2024/04/07 02:16:08;;;;;;;4.43;1.38;;;;;;;16.27;48.73;97032.97;5024686;28;20052;-64
2024/04/07 02:18:34;;;;;;;3.13;1.30;;;;;;;16.38;48.38;97041.81;5023377;28;20037;-64
2024/04/07 02:20:59;;;;;;;2.38;1.10;;;;;;;16.45;48.04;97035.97;5022166;28;20110;-64
2024/04/07 02:23:25;;;;;;;3.38;1.20;;;;;;;16.49;48.36;97034.25;5025736;28;20045;-64
2024/04/07 02:25:51;;;;;;;2.20;1.10;;;;;;;16.48;48.09;97038.13;5023477;28;20041;-64
2024/04/07 02:28:16;;;;;;;3.70;1.35;;;;;;;16.45;47.95;97035.97;5022946;28;20488;-64
2024/04/07 02:30:42;;;;;;;3.78;1.30;;;;;;;16.43;47.75;97043.66;5022258;28;20080;-64
2024/04/07 02:33:08;;;;;;;3.63;1.23;;;;;;;16.43;47.86;97043.66;5021638;28;20053;-64
2024/04/07 02:35:35;;;;;;;3.95;1.63;;;;;;;16.45;47.68;97049.63;5015555;28;20564;-64
2024/04/07 02:38:01;;;;;;;3.55;1.05;;;;;;;16.40;47.79;97055.19;5024351;28;20042;-64
2024/04/07 02:40:27;;;;;;;3.95;1.13;;;;;;;16.42;47.35;97067.44;5024820;28;20125;-64
2024/04/07 02:42:52;;;;;;;3.53;1.08;;;;;;;16.29;48.73;97069.00;5023985;28;20132;-64
2024/04/07 02:48:04;;;;;;;3.40;1.20;;;;;;;15.84;50.24;97066.59;5017415;28;20656;-64
2024/04/07 02:50:30;;;;;;;2.70;1.45;;;;;;;15.68;50.35;97060.56;5022654;28;20103;-64
2024/04/07 02:52:56;;;;;;;2.10;0.95;;;;;;;15.87;48.12;97066.03;5022296;28;20119;-64
2024/04/07 02:55:21;;;;;;;4.05;0.95;;;;;;;16.24;46.22;97071.81;5020628;28;20657;-64
2024/04/07 02:57:47;;;;;;;6.70;1.27;;;;;;;16.61;45.25;97077.50;5022554;28;20042;-64
2024/04/07 03:00:13;;;;;;;2.60;0.98;;;;;;;16.76;44.62;97077.25;5024284;28;20099;-64
2024/04/07 03:02:46;;;;;;;2.97;1.10;;;;;;;16.83;44.61;97079.59;5020188;28;20048;-64
2024/04/07 03:05:12;;;;;;;1.95;0.90;;;;;;;16.81;44.63;97070.09;5024442;28;20487;-64
2024/04/07 03:07:38;;;;;;;4.05;1.10;;;;;;;16.84;44.40;97077.69;5021469;28;20049;-63
2024/04/07 03:10:08;;;;;;;3.08;0.85;;;;;;;16.83;44.45;97087.81;5022344;28;20033;-64
2024/04/07 03:12:34;;;;;;;4.85;1.30;;;;;;;16.58;46.18;97089.84;5016008;28;20042;-64
2024/04/07 03:15:02;;;;;;;2.33;1.00;;;;;;;16.10;48.05;97091.69;5023437;28;20053;-64
2024/04/07 03:17:27;;;;;;;2.47;1.20;;;;;;;15.65;50.49;97088.41;5024173;28;20544;-64
2024/04/07 03:19:53;;;;;;;3.13;1.10;;;;;;;15.41;50.51;97083.81;5023575;28;20539;-64
2024/04/07 03:22:19;;;;;;;3.03;1.10;;;;;;;15.54;48.30;97087.72;5023817;28;20078;-64
2024/04/07 03:24:44;;;;;;;5.47;1.25;;;;;;;15.99;46.93;97095.66;5024011;28;20493;-64
2024/04/07 03:27:10;;;;;;;2.20;0.95;;;;;;;16.06;45.85;97103.47;5021221;28;20057;-64
2024/04/07 03:29:36;;;;;;;3.30;1.13;;;;;;;16.14;45.83;97097.34;5017721;28;20041;-64
2024/04/07 03:32:03;;;;;;;2.78;1.05;;;;;;;16.29;44.76;97103.72;5023705;28;20037;-64
2024/04/07 03:34:29;;;;;;;3.22;1.15;;;;;;;16.42;44.47;97108.44;5023802;28;20041;-64
2024/04/07 03:36:55;;;;;;;2.38;0.82;;;;;;;16.49;44.41;97117.06;5018496;28;20060;-64
2024/04/07 03:39:21;;;;;;;3.25;0.90;;;;;;;16.46;44.42;97122.28;5021432;28;20041;-64
2024/04/07 03:41:47;;;;;;;5.22;1.10;;;;;;;16.44;44.47;97128.06;5022402;28;20107;-64
2024/04/07 03:44:13;;;;;;;2.72;0.80;;;;;;;16.37;45.42;97117.50;5019397;28;20041;-64
2024/04/07 03:46:38;;;;;;;4.10;0.90;;;;;;;16.22;45.69;97136.88;5012896;28;20038;-64
2024/04/07 03:49:05;;;;;;;3.10;0.85;;;;;;;15.94;47.46;97142.09;5021095;28;20439;-64
2024/04/07 03:51:30;;;;;;;2.47;0.90;;;;;;;15.65;48.14;97148.47;5026210;28;20416;-64
2024/04/07 03:53:56;;;;;;;7.70;2.08;;;;;;;15.20;51.74;97153.03;5029843;28;20544;-64
2024/04/07 03:56:22;;;;;;;4.63;1.10;;;;;;;14.97;53.36;97157.34;5022316;28;20423;-63
2024/04/07 03:58:48;;;;;;;2.88;1.17;;;;;;;14.46;56.56;97166.66;5018965;28;20091;-64
2024/04/07 04:01:15;;;;;;;3.53;1.33;;;;;;;14.24;57.12;97159.72;5023152;28;20052;-64
2024/04/07 04:03:43;;;;;;;3.00;1.00;;;;;;;14.14;58.05;97161.41;5021228;28;20049;-64
2024/04/07 04:06:10;;;;;;;2.92;0.90;;;;;;;13.95;59.58;97160.41;5022596;28;20076;-64
2024/04/07 04:08:36;;;;;;;4.63;1.05;;;;;;;13.81;59.76;97173.81;5017372;28;20033;-64
2024/04/07 04:11:05;;;;;;;2.78;0.80;;;;;;;13.64;62.67;97188.56;5022212;28;20080;-64
2024/04/07 04:13:31;;;;;;;2.92;0.93;;;;;;;13.56;62.96;97181.75;5014814;28;20048;-64
2024/04/07 04:15:59;;;;;;;2.90;0.95;;;;;;;13.28;66.10;97183.97;5017886;28;20054;-64
2024/04/07 04:18:25;;;;;;;3.15;0.90;;;;;;;13.17;65.45;97183.19;5016662;28;20225;-64
2024/04/07 04:20:50;;;;;;;3.05;0.93;;;;;;;13.01;68.68;97185.91;5019959;28;20650;-64
2024/04/07 04:23:16;;;;;;;2.65;1.00;;;;;;;12.92;67.88;97197.56;5022004;28;20073;-64
2024/04/07 04:25:53;;;;;;;3.05;1.00;;;;;;;12.92;67.30;97203.00;5020112;28;20040;-64
2024/04/07 04:28:19;;;;;;;2.05;1.00;;;;;;;12.86;67.51;97208.44;5015751;28;20029;-64
2024/04/07 04:30:56;;;;;;;2.70;1.00;;;;;;;13.11;66.07;97206.84;5016324;28;20041;-64
2024/04/07 04:33:23;;;;;;;4.72;1.38;;;;;;;13.11;65.81;97206.84;5021799;28;20045;-64
2024/04/07 04:35:49;;;;;;;4.88;1.42;;;;;;;12.80;68.91;97201.41;5014559;28;20409;-64
2024/04/07 04:38:15;;;;;;;2.88;1.20;;;;;;;12.65;68.78;97202.19;5014094;28;20042;-64
2024/04/07 04:40:41;;;;;;;2.67;1.10;;;;;;;12.53;71.11;97204.34;5017901;28;20053;-64
2024/04/07 04:43:07;;;;;;;3.85;0.85;;;;;;;12.53;69.83;97212.50;5022341;28;20069;-63
2024/04/07 04:45:33;;;;;;;5.93;1.27;;;;;;;12.68;68.23;97219.84;5020426;28;20057;-64
2024/04/07 04:47:58;;;;;;;3.38;1.13;;;;;;;12.66;68.83;97222.00;5005024;28;20042;-64
2024/04/07 04:50:26;;;;;;;4.97;1.33;;;;;;;12.62;68.40;97221.75;5019573;28;20508;-64
2024/04/07 04:52:51;;;;;;;3.95;1.70;;;;;;;12.66;68.23;97228.28;5008477;28;20509;-64
2024/04/07 04:55:17;;;;;;;4.43;0.90;;;;;;;12.71;68.56;97238.31;5012567;28;20044;-63
2024/04/07 04:57:42;;;;;;;5.38;1.25;;;;;;;12.66;68.60;97239.13;5022529;28;20147;-64
2024/04/07 05:00:10;;;;;;;4.88;1.45;;;;;;;12.58;69.61;97240.50;5024459;28;20134;-64
2024/04/07 05:02:35;;;;;;;2.58;1.10;;;;;;;12.55;70.25;97243.72;5026787;28;20052;-64
2024/04/07 05:05:01;;;;;;;4.85;1.73;;;;;;;12.63;69.44;97250.53;5026582;28;20116;-64
2024/04/07 05:07:27;;;;;;;3.53;1.30;;;;;;;12.64;69.19;97262.22;5030697;28;20053;-64
2024/04/07 05:09:52;;;;;;;6.20;1.05;;;;;;;12.49;71.10;97270.06;5024624;28;20432;-64
2024/04/07 05:12:18;;;;;;;4.05;0.90;;;;;;;12.29;72.67;97267.25;5025219;28;20037;-63
2024/04/07 05:14:43;;;;;;;2.33;1.02;;;;;;;12.30;72.63;97279.75;5023816;28;20044;-63
2024/04/07 05:17:09;;;;;;;4.65;1.23;;;;;;;12.28;73.06;97282.75;5019327;28;20048;-62
2024/04/07 05:19:35;;;;;;;2.95;1.25;;;;;;;12.17;74.31;97289.22;5014041;28;20410;-62
2024/04/07 05:22:02;;;;;;;2.38;1.10;;;;;;;12.03;75.44;97276.09;5022443;28;20582;-62
2024/04/07 05:24:28;;;;;;;3.63;1.35;;;;;;;12.00;76.77;97286.63;5025087;28;20099;-63
2024/04/07 05:26:54;;;;;;;3.13;1.17;;;;;;;12.02;77.20;97282.56;5027359;28;20053;-63
2024/04/07 05:29:20;;;;;;;4.00;1.40;;;;;;;12.03;77.67;97281.53;5019448;28;20042;-63
2024/04/07 05:31:46;;;;;;;4.53;1.23;;;;;;;12.02;77.47;97295.34;5024518;28;20045;-61
2024/04/07 05:34:11;;;;;;;5.30;2.15;;;;;;;12.00;78.29;97294.78;5025082;28;20073;-62
2024/04/07 05:36:37;;;;;;;5.78;2.28;;;;;;;12.01;78.91;97294.53;5019615;28;20847;-62
2024/04/07 05:39:02;;;;;;;3.08;1.23;;;;;;;12.07;79.29;97298.94;5023803;28;20033;-61
2024/04/07 05:41:28;;;;;;;3.75;1.30;;;;;;;12.08;78.74;97305.16;5023148;28;20045;-61
2024/04/07 05:43:53;;;;;;;3.67;1.38;;;;;;;11.96;79.03;97311.59;5024370;28;20128;-61
2024/04/07 05:46:19;;;;;;;4.60;1.30;;;;;;;11.92;80.12;97312.38;5024788;28;20091;-62
2024/04/07 05:48:45;;;;;;;8.90;1.40;;;;;;;12.02;79.42;97306.19;5025608;28;20045;-62
2024/04/07 05:51:13;;;;;;;6.22;1.38;;;;;;;12.06;78.59;97315.47;5020884;28;20060;-62
2024/04/07 05:53:39;;;;;;;6.55;1.27;;;;;;;12.04;79.76;97317.59;5023009;28;20048;-61
2024/04/07 05:56:14;;;;;;;2.85;0.93;;;;;;;12.09;80.88;97326.63;5018076;28;20037;-62
2024/04/07 05:58:40;;;;;;;6.50;1.13;;;;;;;12.21;81.66;97320.97;5024390;28;20045;-62
2024/04/07 06:01:05;;;;;;;3.42;1.20;;;;;;;12.60;77.10;97327.09;5023342;28;20082;-61
2024/04/07 06:03:31;;;;;;;6.35;1.27;;;;;;;13.04;73.40;97328.59;5026937;28;20049;-62
2024/04/07 06:05:57;;;;;;;4.75;0.93;;;;;;;13.78;68.72;97331.09;5020398;28;20057;-62
2024/04/07 06:08:22;;;;;;;9.73;1.52;;;;;;;15.05;60.67;97328.50;5031469;28;20036;-63
2024/04/07 06:10:48;;;;;;;5.35;1.20;;;;;;;15.84;56.26;97351.34;5020500;28;20048;-62
2024/04/07 06:13:14;;;;;;;8.00;1.50;;;;;;;16.26;56.67;97353.72;5022489;28;20056;-63
2024/04/07 06:15:39;;;;;;;8.30;1.80;;;;;;;16.47;54.97;97357.03;5023005;28;20049;-62
2024/04/07 06:18:06;;;;;;;7.80;2.05;;;;;;;16.71;54.23;97353.47;5019662;28;20048;-62
2024/04/07 06:20:32;;;;;;;5.95;1.15;;;;;;;16.92;53.49;97352.38;5020257;28;20065;-62
2024/04/07 06:22:57;;;;;;;5.93;1.45;;;;;;;17.07;53.40;97360.41;5018815;28;20139;-62
2024/04/07 06:25:23;;;;;;;7.35;1.40;;;;;;;17.18;53.86;97363.81;5022038;28;20103;-61
2024/04/07 06:27:48;;;;;;;6.07;1.25;;;;;;;17.20;53.71;97366.22;5022649;28;20487;-61
2024/04/07 06:30:14;;;;;;;8.00;1.10;;;;;;;17.14;55.21;97360.84;5017196;28;20123;-61
2024/04/07 06:32:40;;;;;;;3.05;1.13;;;;;;;17.28;53.55;97365.56;5015227;28;20071;-62
2024/04/07 06:35:05;;;;;;;5.78;1.40;;;;;;;17.36;54.08;97361.38;5020620;28;20048;-62
2024/04/07 06:37:31;;;;;;;5.32;1.30;;;;;;;17.47;54.46;97367.50;5014960;28;20042;-62
2024/04/07 06:39:56;;;;;;;3.72;1.10;;;;;;;17.62;53.06;97372.72;5017760;28;20492;-62
2024/04/07 06:42:31;;;;;;;5.57;1.35;;;;;;;17.82;54.14;97387.19;5019847;28;20045;-63
2024/04/07 06:44:59;;;;;;;9.07;1.30;;;;;;;17.92;53.18;97384.28;5010499;28;20040;-62
2024/04/07 06:47:26;;;;;;;6.28;1.40;;;;;;;18.06;52.94;97378.84;5023945;28;20041;-62
2024/04/07 06:49:54;;;;;;;4.53;1.17;;;;;;;18.16;52.84;97383.38;5020320;28;20113;-62
2024/04/07 06:52:21;;;;;;;7.35;1.15;;;;;;;18.15;52.25;97387.22;5024245;28;20099;-63
2024/04/07 06:54:46;;;;;;;5.03;1.45;;;;;;;18.26;53.59;97396.06;5017187;28;20073;-62
2024/04/07 06:57:14;;;;;;;8.73;1.70;;;;;;;18.43;52.23;97394.69;5015913;28;20049;-63
2024/04/07 06:59:39;;;;;;;5.85;1.25;;;;;;;18.48;51.83;97399.22;5013549;28;20527;-61
2024/04/07 07:02:05;;;;;;;3.05;1.20;;;;;;;18.71;52.36;97402.91;5033915;28;20037;-62
2024/04/07 07:04:31;;;;;;;4.57;1.25;;;;;;;18.77;50.93;97400.88;5020658;28;20172;-62
2024/04/07 07:06:56;;;;;;;5.72;0.85;;;;;;;18.83;52.15;97394.97;5019413;28;20078;-60
2024/04/07 07:09:22;;;;;;;8.20;1.00;;;;;;;18.95;50.28;97396.41;5024513;28;20048;-62
2024/04/07 07:11:48;;;;;;;5.65;1.20;;;;;;;18.88;52.32;97415.19;5022657;28;20583;-63
2024/04/07 07:14:13;;;;;;;5.18;1.10;;;;;;;18.87;52.10;97421.81;5021431;28;20562;-62
2024/04/07 07:16:39;;;;;;;4.85;1.23;;;;;;;18.96;50.95;97414.47;5020237;28;20049;-63
2024/04/07 07:19:05;;;;;;;6.22;1.50;;;;;;;18.92;50.21;97414.28;5018854;28;20061;-61
2024/04/07 07:21:30;;;;;;;3.95;1.10;;;;;;;18.94;51.12;97411.25;5022736;28;20042;-62
2024/04/07 07:23:56;;;;;;;12.80;3.17;;;;;;;19.04;51.81;97418.41;5024806;28;20571;-62
2024/04/07 07:26:22;;;;;;;7.05;1.90;;;;;;;19.15;52.43;97428.09;5020827;28;20037;-62
2024/04/07 07:28:47;;;;;;;3.92;0.90;;;;;;;19.27;50.93;97430.31;5016850;28;20044;-63
2024/04/07 07:31:13;;;;;;;6.20;1.52;;;;;;;19.48;50.94;97432.59;5020766;28;20485;-63
2024/04/07 07:33:40;;;;;;;6.78;1.05;;;;;;;19.47;52.75;97445.50;5021277;28;20123;-60
2024/04/07 07:36:05;;;;;;;4.50;1.20;;;;;;;19.79;50.29;97444.81;5013726;28;20041;-61
2024/04/07 07:38:31;;;;;;;5.45;0.93;;;;;;;19.97;50.24;97445.78;5020613;28;20999;-60
2024/04/07 07:40:57;;;;;;;4.68;1.27;;;;;;;19.96;48.80;97446.88;5013713;28;20139;-61
2024/04/07 07:43:22;;;;;;;8.27;1.35;;;;;;;19.86;49.06;97461.66;5022040;28;20108;-60
2024/04/07 07:45:49;;;;;;;7.60;1.40;;;;;;;19.70;51.21;97459.31;5019049;28;20120;-63
2024/04/07 07:48:15;;;;;;;5.68;1.25;;;;;;;19.70;50.79;97469.47;5021260;28;20067;-59
2024/04/07 07:50:41;;;;;;;6.00;1.80;;;;;;;19.56;52.40;97469.50;5012724;28;20068;-59
2024/04/07 07:53:07;;;;;;;6.13;2.35;;;;;;;19.31;52.24;97479.94;5022288;28;20532;-62
2024/04/07 07:55:33;;;;;;;3.78;1.17;;;;;;;19.28;52.34;97484.13;5021319;28;20037;-61
2024/04/07 07:57:59;;;;;;;4.13;1.23;;;;;;;18.85;55.48;97490.69;5020838;28;20076;-62
2024/04/07 08:00:25;;;;;;;4.68;1.45;;;;;;;18.62;56.91;97493.31;5025260;28;20044;-61
2024/04/07 08:02:53;;;;;;;6.03;1.25;;;;;;;18.71;55.03;97498.88;5024004;28;20056;-63
2024/04/07 08:05:19;;;;;;;5.95;1.38;;;;;;;18.82;55.26;97496.75;5020781;28;20050;-62
2024/04/07 08:07:45;;;;;;;5.97;1.17;;;;;;;18.51;56.41;97502.81;5015606;28;20065;-62
2024/04/07 08:10:10;;;;;;;5.13;1.20;;;;;;;18.62;55.76;97509.75;5020060;28;20045;-62
2024/04/07 08:12:38;;;;;;;7.70;0.95;;;;;;;18.55;56.16;97512.88;5017594;28;20068;-62
2024/04/07 08:15:05;;;;;;;5.03;1.10;;;;;;;18.66;56.26;97518.19;5021449;28;20537;-62
2024/04/07 08:17:30;;;;;;;5.35;2.03;;;;;;;18.55;57.40;97528.50;5014557;28;20041;-62
2024/04/07 08:19:56;;;;;;;5.68;1.10;;;;;;;18.34;57.33;97531.59;5022447;28;20038;-62
2024/04/07 08:22:21;;;;;;;7.30;1.30;;;;;;;18.37;56.83;97539.22;5013787;28;20049;-63
2024/04/07 08:24:47;;;;;;;8.18;1.52;;;;;;;18.26;56.82;97549.53;5021944;28;20441;-63
2024/04/07 08:27:13;;;;;;;9.98;1.17;;;;;;;18.30;55.61;97525.91;5021252;28;20484;-62
2024/04/07 08:29:38;;;;;;;5.00;0.90;;;;;;;18.33;56.89;97527.22;5024578;28;20029;-64
2024/04/07 08:32:04;;;;;;;3.28;1.10;;;;;;;18.45;56.85;97532.25;5019742;28;20705;-61
2024/04/07 08:34:30;;;;;;;7.10;1.23;;;;;;;18.37;55.49;97538.41;5021053;28;20069;-62
2024/04/07 08:36:56;;;;;;;7.38;1.38;;;;;;;18.31;55.81;97527.53;5013679;28;20045;-62
2024/04/07 08:39:21;;;;;;;5.68;0.93;;;;;;;18.23;57.64;97530.94;5016529;28;20421;-63
2024/04/07 08:41:47;;;;;;;8.90;1.80;;;;;;;18.38;56.21;97526.31;5020961;28;20037;-62
2024/04/07 08:44:13;;;;;;;5.65;1.10;;;;;;;18.61;57.80;97534.72;5015379;28;20095;-62
2024/04/07 08:46:40;;;;;;;18.80;9.98;;;;;;;18.69;55.59;97551.28;5016169;28;20711;-63
2024/04/07 08:49:08;;;;;;;5.07;1.10;;;;;;;18.68;54.86;97543.34;5011850;28;20057;-62
2024/04/07 08:51:36;;;;;;;4.80;1.27;;;;;;;18.91;55.07;97549.81;5013911;28;20064;-62
2024/04/07 08:54:07;;;;;;;4.07;1.33;;;;;;;19.05;54.20;97543.53;5017885;28;20045;-63
2024/04/07 08:56:37;;;;;;;5.93;1.65;;;;;;;19.14;54.27;97533.50;5020604;28;20044;-62
2024/04/07 08:59:06;;;;;;;4.35;1.23;;;;;;;19.41;53.70;97542.84;5014925;28;20129;-62
2024/04/07 09:01:32;;;;;;;5.53;1.63;;;;;;;19.51;53.15;97541.84;5015677;28;20049;-62
2024/04/07 09:03:59;;;;;;;4.30;1.27;;;;;;;19.70;52.16;97549.94;5013477;28;21177;-65
2024/04/07 09:06:29;;;;;;;8.63;1.20;;;;;;;19.32;53.15;97547.44;5016088;28;20033;-49
2024/04/07 09:08:57;;;;;;;4.30;1.27;;;;;;;19.25;54.02;97553.34;5017490;28;20037;-49
2024/04/07 09:11:23;;;;;;;7.97;1.48;;;;;;;19.23;53.75;97550.88;5005762;28;20100;-54
2024/04/07 09:13:48;;;;;;;6.20;1.48;;;;;;;19.42;53.36;97551.91;5014017;28;20041;-54
2024/04/07 09:16:15;;;;;;;4.78;1.25;;;;;;;19.24;54.27;97559.94;5016798;28;20487;-52
2024/04/07 09:18:40;;;;;;;11.95;2.10;;;;;;;19.29;54.20;97559.03;5022121;28;20068;-54
2024/04/07 09:21:19;;;;;;;6.15;1.00;;;;;;;19.25;54.27;97561.56;5013399;28;20304;-51
2024/04/07 09:23:50;;;;;;;12.05;2.85;;;;;;;19.24;54.62;97549.75;5014725;28;20042;-54
2024/04/07 09:26:17;;;;;;;4.70;1.65;;;;;;;19.34;55.57;97553.41;5028103;28;20050;-52
2024/04/07 09:28:43;;;;;;;5.82;1.85;;;;;;;19.45;56.30;97565.00;5018470;28;20068;-51
2024/04/07 09:31:09;;;;;;;6.57;1.20;;;;;;;19.52;55.74;97557.19;5019133;28;20591;-53
2024/04/07 09:33:35;;;;;;;7.38;1.45;;;;;;;19.48;55.48;97556.16;5013699;28;20117;-51
2024/04/07 09:36:01;;;;;;;4.88;0.90;;;;;;;19.71;55.40;97542.50;5018087;28;20068;-52
2024/04/07 09:38:28;;;;;;;5.80;1.23;;;;;;;19.78;54.46;97545.66;5023591;28;20487;-52
2024/04/07 09:40:57;;;;;;;6.82;1.58;;;;;;;19.73;55.33;97545.78;5032959;28;20053;-52
2024/04/07 09:43:30;;;;;;;6.03;1.55;;;;;;;19.66;55.74;97548.94;5015328;28;20099;-54
2024/04/07 09:45:56;;;;;;;7.88;1.70;;;;;;;19.86;55.26;97544.09;5010882;28;20048;-51
2024/04/07 09:48:24;;;;;;;5.47;1.45;;;;;;;19.84;55.27;97552.66;5024630;28;20053;-48
2024/04/07 09:51:13;;;;;;;5.53;1.30;;;;;;;19.91;55.75;97552.25;5021078;28;20080;-49
2024/04/07 09:53:57;;;;;;;5.10;1.20;;;;;;;19.85;57.05;97557.03;5020969;28;20095;-50
2024/04/07 09:56:28;;;;;;;5.40;1.48;;;;;;;19.93;57.07;97549.19;5015152;28;20052;-50
2024/04/07 09:58:54;;;;;;;6.88;2.03;;;;;;;20.08;57.59;97548.84;5023505;28;20053;-50
2024/04/07 10:01:21;;;;;;;5.50;1.27;;;;;;;20.11;56.96;97550.16;5017925;28;20116;-52
2024/04/07 10:03:51;;;;;;;9.60;2.30;;;;;;;20.18;57.15;97546.97;5021091;28;20037;-48
2024/04/07 10:06:19;;;;;;;5.32;1.20;;;;;;;20.30;54.78;97532.72;5016488;28;20045;-51
2024/04/07 10:08:45;;;;;;;3.95;0.90;;;;;;;20.34;53.44;97537.25;5025231;28;20026;-52
2024/04/07 10:11:19;;;;;;;4.90;1.02;;;;;;;20.32;55.14;97535.94;5018192;28;20045;-51
2024/04/07 10:13:45;;;;;;;4.95;1.10;;;;;;;20.09;55.38;97539.47;5023173;28;20045;-49
2024/04/07 10:16:13;;;;;;;7.45;2.35;;;;;;;20.45;56.71;97546.06;5011454;28;20053;-51
2024/04/07 10:18:45;;;;;;;4.80;1.20;;;;;;;20.61;54.54;97532.75;5016924;28;20103;-49
2024/04/07 10:21:10;;;;;;;7.20;1.42;;;;;;;20.83;53.89;97525.59;5016178;28;20042;-51
2024/04/07 10:23:38;;;;;;;5.93;1.23;;;;;;;20.85;53.03;97530.75;5022756;28;20045;-50
2024/04/07 10:26:07;;;;;;;3.30;0.98;;;;;;;20.79;53.51;97532.84;5018225;28;20490;-50
2024/04/07 10:28:50;;;;;;;5.95;1.20;;;;;;;20.69;52.55;97525.66;5023000;28;20041;-50
2024/04/07 10:31:29;;;;;;;5.03;1.55;;;;;;;20.98;52.44;97518.06;5028609;28;20053;-47
2024/04/07 10:33:55;;;;;;;7.90;1.38;;;;;;;20.79;51.75;97516.34;5038048;28;20108;-50
2024/04/07 10:36:21;;;;;;;6.78;1.30;;;;;;;20.67;51.47;97512.22;5019634;28;20046;-50
2024/04/07 10:38:50;;;;;;;7.38;1.50;;;;;;;20.69;51.24;97514.66;5012402;28;20037;-48
2024/04/07 10:41:28;;;;;;;4.93;1.20;;;;;;;21.06;51.26;97517.28;5001971;28;20791;-52
2024/04/07 10:43:55;;;;;;;5.82;1.17;;;;;;;21.04;51.46;97503.84;5010636;28;20327;-51
2024/04/07 10:46:22;;;;;;;7.25;1.50;;;;;;;21.26;51.01;97498.59;5023757;28;20041;-52
2024/04/07 10:48:49;;;;;;;7.20;2.33;;;;;;;21.35;53.93;97504.91;5017537;28;20037;-47
2024/04/07 10:51:18;;;;;;;5.20;1.38;;;;;;;21.11;52.43;97497.88;5012669;28;20069;-51
2024/04/07 10:53:57;;;;;;;5.15;1.15;;;;;;;21.18;51.51;97505.66;5003816;28;20048;-50
2024/04/07 10:56:22;;;;;;;8.45;1.50;;;;;;;21.27;50.25;97505.72;5014893;28;20038;-53
2024/04/07 10:58:49;;;;;;;8.70;1.60;;;;;;;21.22;50.28;97492.88;5015191;28;20045;-51
2024/04/07 11:01:15;;;;;;;5.88;1.30;;;;;;;21.41;49.57;97497.31;5016874;28;20091;-51
2024/04/07 11:03:42;;;;;;;7.95;1.10;;;;;;;21.77;50.03;97490.75;5012393;28;20086;-52
2024/04/07 11:06:08;;;;;;;6.15;1.80;;;;;;;21.91;48.37;97487.84;5022133;28;20042;-54
2024/04/07 11:08:35;;;;;;;5.63;1.63;;;;;;;22.18;47.90;97494.16;5023280;28;20087;-49
2024/04/07 11:11:04;;;;;;;4.95;1.10;;;;;;;22.20;48.44;97502.09;5011631;28;20413;-52
2024/04/07 11:13:30;;;;;;;4.68;1.20;;;;;;;22.42;47.98;97490.06;5020001;28;20053;-51
2024/04/07 11:15:55;;;;;;;5.15;1.33;;;;;;;22.36;47.32;97496.88;5016452;28;20051;-53
2024/04/07 11:18:22;;;;;;;6.05;1.05;;;;;;;22.57;48.11;97479.66;5015967;28;20251;-52
2024/04/07 11:20:49;;;;;;;5.70;1.25;;;;;;;22.71;47.86;97471.97;5021529;28;20048;-52
2024/04/07 11:23:15;;;;;;;7.85;1.73;;;;;;;22.58;46.29;97461.97;5027370;28;20060;-50
2024/04/07 11:25:44;;;;;;;7.80;1.70;;;;;;;22.43;47.09;97466.03;5020705;28;20041;-53
2024/04/07 11:28:12;;;;;;;7.45;1.35;;;;;;;22.84;47.87;97466.56;5017032;28;20461;-51
2024/04/07 11:30:45;;;;;;;6.70;1.40;;;;;;;23.13;47.06;97462.22;5019182;28;20045;-51
2024/04/07 11:33:11;;;;;;;6.30;1.58;;;;;;;22.86;46.00;97439.47;5015358;28;20107;-49
2024/04/07 11:35:41;;;;;;;7.45;1.75;;;;;;;23.09;45.36;97441.94;5014263;28;20386;-50